createdAt,value
2023-01-09T00:01:59.639Z,1.50
2023-01-09T00:04:28.068Z,1.77
2023-01-09T00:07:02.755Z,1.93
2023-01-09T00:09:32.797Z,2.90
2023-01-09T00:12:08.651Z,3.30
2023-01-09T00:14:36.865Z,3.67
2023-01-09T00:17:11.689Z,3.80
2023-01-09T00:19:40.300Z,3.40
2023-01-09T00:22:16.715Z,3.77
2023-01-09T00:24:47.004Z,3.30
2023-01-09T00:27:21.691Z,3.33
2023-01-09T00:29:50.000Z,2.70
2023-01-09T00:32:24.638Z,2.40
2023-01-09T00:34:52.901Z,2.33
2023-01-09T00:37:27.660Z,2.30
2023-01-09T00:39:57.510Z,1.93
2023-01-09T00:42:37.716Z,2.40
2023-01-09T00:45:17.828Z,2.00
2023-01-09T00:47:49.895Z,1.77
2023-01-09T00:50:29.748Z,1.70
2023-01-09T00:53:01.684Z,1.50
2023-01-09T00:55:38.862Z,1.60
2023-01-09T00:58:08.198Z,1.40
2023-01-09T01:00:42.639Z,1.27
2023-01-09T01:03:10.960Z,1.63
2023-01-09T01:06:03.695Z,1.20
2023-01-09T01:08:51.793Z,1.37
2023-01-09T01:11:27.885Z,1.40
2023-01-09T01:13:56.335Z,1.27
2023-01-09T01:16:31.787Z,1.17
2023-01-09T01:19:00.267Z,1.27
2023-01-09T01:21:35.886Z,1.30
2023-01-09T01:24:04.354Z,1.30
2023-01-09T01:26:40.664Z,1.50
2023-01-09T01:29:09.016Z,1.40
2023-01-09T01:31:43.801Z,1.43
2023-01-09T01:34:11.913Z,1.57
2023-01-09T01:36:46.888Z,1.60
2023-01-09T01:39:15.270Z,1.50
2023-01-09T01:41:51.744Z,1.40
2023-01-09T01:44:56.940Z,1.53
2023-01-09T01:47:36.788Z,1.60
2023-01-09T01:50:09.587Z,1.40
2023-01-09T01:52:45.923Z,3.03
2023-01-09T01:55:14.939Z,2.27
2023-01-09T01:57:57.196Z,1.60
2023-01-09T02:00:55.044Z,1.70
2023-01-09T02:03:33.811Z,1.60
2023-01-09T02:06:04.923Z,1.53
2023-01-09T02:08:39.803Z,1.30
2023-01-09T02:11:09.034Z,1.23
2023-01-09T02:13:46.946Z,1.53
2023-01-09T02:16:27.843Z,1.20
2023-01-09T02:19:09.732Z,1.40
2023-01-09T02:21:50.804Z,1.70
2023-01-09T02:24:44.854Z,1.30
2023-01-09T02:27:36.132Z,1.37
2023-01-09T02:30:37.937Z,1.20
2023-01-09T02:33:28.782Z,1.40
2023-01-09T02:36:18.009Z,1.67
2023-01-09T02:39:06.450Z,1.50
2023-01-09T02:41:48.020Z,1.60
2023-01-09T02:44:22.759Z,1.30
2023-01-09T02:47:10.819Z,1.20
2023-01-09T02:49:43.167Z,1.20
2023-01-09T02:52:32.734Z,1.30
2023-01-09T02:55:09.742Z,1.50
2023-01-09T02:57:58.796Z,1.20
2023-01-09T03:00:56.921Z,1.50
2023-01-09T03:03:39.964Z,1.60
2023-01-09T03:06:14.700Z,1.50
2023-01-09T03:08:52.856Z,1.50
2023-01-09T03:11:22.658Z,1.40
2023-01-09T03:14:00.869Z,1.30
2023-01-09T03:16:33.215Z,1.83
2023-01-09T03:19:11.897Z,1.40
2023-01-09T03:21:41.111Z,1.73
2023-01-09T03:24:15.828Z,1.40
2023-01-09T03:26:44.818Z,1.50
2023-01-09T03:29:19.858Z,1.63
2023-01-09T03:31:48.501Z,1.30
2023-01-09T03:34:24.833Z,1.53
2023-01-09T03:36:53.412Z,1.70
2023-01-09T03:39:27.828Z,1.80
2023-01-09T03:41:56.233Z,1.50
2023-01-09T03:44:31.866Z,1.97
2023-01-09T03:47:00.212Z,1.70
2023-01-09T03:49:36.879Z,1.60
2023-01-09T03:52:05.569Z,1.43
2023-01-09T03:54:39.927Z,1.50
2023-01-09T03:57:08.334Z,1.90
2023-01-09T03:59:42.888Z,1.87
2023-01-09T04:02:31.861Z,1.60
2023-01-09T04:05:07.928Z,1.90
2023-01-09T04:07:36.381Z,2.03
2023-01-09T04:10:11.860Z,1.30
2023-01-09T04:12:40.438Z,1.73
2023-01-09T04:15:15.959Z,1.80
2023-01-09T04:17:44.800Z,1.67
2023-01-09T04:20:21.960Z,1.87
2023-01-09T04:22:50.191Z,1.73
2023-01-09T04:25:24.909Z,2.30
2023-01-09T04:27:53.604Z,1.93
2023-01-09T04:30:29.004Z,1.80
2023-01-09T04:32:57.213Z,2.00
2023-01-09T04:35:33.870Z,1.50
2023-01-09T04:38:02.127Z,1.47
2023-01-09T04:40:36.972Z,1.60
2023-01-09T04:43:05.251Z,1.70
2023-01-09T04:45:39.953Z,2.07
2023-01-09T04:48:08.633Z,1.50
2023-01-09T04:50:45.075Z,1.80
2023-01-09T04:53:13.520Z,1.73
2023-01-09T04:55:49.945Z,1.60
2023-01-09T04:58:18.531Z,1.63
2023-01-09T05:00:54.177Z,1.77
2023-01-09T05:03:29.156Z,1.60
2023-01-09T05:06:06.108Z,2.23
2023-01-09T05:08:34.551Z,2.07
2023-01-09T05:11:09.975Z,1.87
2023-01-09T05:13:38.353Z,1.80
2023-01-09T05:16:14.168Z,1.83
2023-01-09T05:18:42.651Z,1.80
2023-01-09T05:21:20.110Z,1.80
2023-01-09T05:23:48.524Z,1.70
2023-01-09T05:26:23.280Z,1.97
2023-01-09T05:28:52.061Z,1.97
2023-01-09T05:31:27.941Z,2.10
2023-01-09T05:33:59.336Z,2.13
2023-01-09T05:36:36.013Z,1.97
2023-01-09T05:39:05.630Z,2.60
2023-01-09T05:41:40.952Z,1.73
2023-01-09T05:44:09.448Z,2.23
2023-01-09T05:46:44.144Z,2.20
2023-01-09T05:49:13.005Z,2.07
2023-01-09T05:51:49.959Z,2.10
2023-01-09T05:54:18.591Z,1.90
2023-01-09T05:56:54.002Z,2.17
2023-01-09T05:59:22.478Z,2.10
2023-01-09T06:01:58.001Z,1.87
2023-01-09T06:04:30.013Z,2.00
2023-01-09T06:07:07.207Z,1.87
2023-01-09T06:09:35.785Z,1.97
2023-01-09T06:12:11.069Z,2.00
2023-01-09T06:14:39.928Z,1.50
2023-01-09T06:17:14.986Z,1.50
2023-01-09T06:19:43.599Z,2.07
2023-01-09T06:22:20.053Z,1.83
2023-01-09T06:24:48.553Z,1.93
2023-01-09T06:27:24.148Z,1.90
2023-01-09T06:29:52.401Z,1.73
2023-01-09T06:32:27.072Z,1.90
2023-01-09T06:34:55.307Z,2.10
2023-01-09T06:37:32.073Z,1.87
2023-01-09T06:40:00.548Z,1.80
2023-01-09T06:42:35.028Z,1.50
2023-01-09T06:45:03.728Z,1.60
2023-01-09T06:47:39.215Z,1.83
2023-01-09T06:50:09.398Z,1.90
2023-01-09T06:52:46.073Z,1.80
2023-01-09T06:55:14.575Z,1.80
2023-01-09T06:57:50.176Z,1.87
2023-01-09T07:00:19.743Z,1.80
2023-01-09T07:02:55.176Z,1.70
2023-01-09T07:05:23.484Z,1.60
2023-01-09T07:08:00.253Z,1.63
2023-01-09T07:10:28.619Z,1.50
2023-01-09T07:13:04.054Z,1.77
2023-01-09T07:15:32.581Z,1.40
2023-01-09T07:18:07.044Z,1.70
2023-01-09T07:20:35.279Z,1.60
2023-01-09T07:23:11.423Z,1.63
2023-01-09T07:25:39.912Z,1.80
2023-01-09T07:28:15.277Z,1.63
2023-01-09T07:30:44.155Z,1.90
2023-01-09T07:33:19.117Z,3.47
2023-01-09T07:35:47.554Z,1.97
2023-01-09T07:38:24.038Z,1.80
2023-01-09T07:40:52.371Z,1.70
2023-01-09T07:43:27.213Z,1.50
2023-01-09T07:45:55.685Z,1.40
2023-01-09T07:48:30.103Z,2.20
2023-01-09T07:50:58.544Z,2.10
2023-01-09T07:53:35.184Z,1.63
2023-01-09T07:56:03.740Z,1.60
2023-01-09T07:58:39.110Z,1.80
2023-01-09T08:01:14.761Z,1.77
2023-01-09T08:03:57.188Z,1.70
2023-01-09T08:06:32.241Z,5.77
2023-01-09T08:09:02.037Z,2.10
2023-01-09T08:11:37.095Z,1.93
2023-01-09T08:14:05.478Z,2.00
2023-01-09T08:16:40.208Z,1.90
2023-01-09T08:19:12.292Z,1.70
2023-01-09T08:21:49.424Z,1.60
2023-01-09T08:24:19.669Z,1.60
2023-01-09T08:26:54.123Z,1.83
2023-01-09T08:29:22.762Z,1.60
2023-01-09T08:31:58.167Z,1.40
2023-01-09T08:34:26.598Z,1.90
2023-01-09T08:37:02.201Z,1.63
2023-01-09T08:39:33.102Z,1.80
2023-01-09T08:42:25.155Z,2.33
2023-01-09T08:45:11.123Z,1.60
2023-01-09T08:47:46.179Z,1.60
2023-01-09T08:50:14.730Z,1.90
2023-01-09T08:52:50.115Z,1.60
2023-01-09T08:55:20.275Z,2.03
2023-01-09T08:57:58.296Z,1.90
2023-01-09T09:00:27.553Z,1.93
2023-01-09T09:03:10.336Z,1.70
2023-01-09T09:05:46.795Z,2.07
2023-01-09T09:08:22.128Z,1.83
2023-01-09T09:10:52.106Z,1.90
2023-01-09T09:13:27.141Z,2.03
2023-01-09T09:15:55.644Z,1.77
2023-01-09T09:18:23.975Z,1.60
2023-01-09T09:20:59.336Z,1.90
2023-01-09T09:23:27.950Z,1.97
2023-01-09T09:26:05.122Z,2.13
2023-01-09T09:28:33.787Z,1.43
2023-01-09T09:31:08.360Z,1.27
2023-01-09T09:33:36.873Z,1.60
2023-01-09T09:36:12.205Z,1.53
2023-01-09T09:38:47.216Z,1.40
2023-01-09T09:41:47.030Z,1.53
2023-01-09T09:44:54.282Z,1.20
2023-01-09T09:47:43.297Z,1.17
2023-01-09T09:50:40.359Z,1.00
2023-01-09T09:53:14.198Z,0.80
2023-01-09T09:55:50.191Z,1.10
2023-01-09T09:58:28.157Z,0.90
2023-01-09T10:01:06.233Z,1.10
2023-01-09T10:03:44.643Z,0.90
2023-01-09T10:06:26.132Z,1.17
2023-01-09T10:09:02.983Z,0.93
2023-01-09T10:11:44.283Z,1.00
2023-01-09T10:14:23.799Z,0.97
2023-01-09T10:17:20.318Z,1.20
2023-01-09T10:20:12.159Z,1.20
2023-01-09T10:22:54.380Z,1.03
2023-01-09T10:25:28.903Z,1.10
2023-01-09T10:28:22.285Z,1.00
2023-01-09T10:30:56.209Z,0.93
2023-01-09T10:33:49.199Z,0.90
2023-01-09T10:36:39.296Z,1.10
2023-01-09T10:39:23.222Z,1.10
2023-01-09T10:41:58.772Z,1.20
2023-01-09T10:44:42.445Z,1.00
2023-01-09T10:47:18.620Z,1.00
2023-01-09T10:49:55.293Z,0.83
2023-01-09T10:52:30.265Z,1.07
2023-01-09T10:55:13.469Z,1.40
2023-01-09T10:57:46.791Z,2.73
2023-01-09T11:00:25.383Z,2.10
2023-01-09T11:03:15.332Z,2.90
2023-01-09T11:05:51.274Z,1.87
2023-01-09T11:08:25.336Z,1.97
2023-01-09T11:11:02.468Z,1.50
2023-01-09T11:13:39.385Z,1.40
2023-01-09T11:16:15.985Z,1.80
2023-01-09T11:19:00.416Z,1.43
2023-01-09T11:21:33.480Z,1.10
2023-01-09T11:24:35.240Z,1.27
2023-01-09T11:27:24.987Z,1.40
2023-01-09T11:30:30.453Z,1.03
2023-01-09T11:33:00.555Z,1.10
2023-01-09T11:35:39.297Z,1.20
2023-01-09T11:38:14.124Z,1.30
2023-01-09T11:40:58.259Z,1.50
2023-01-09T11:43:39.257Z,1.40
2023-01-09T11:46:09.243Z,1.53
2023-01-09T11:48:47.397Z,1.30
2023-01-09T11:51:33.071Z,1.30
2023-01-09T11:54:23.585Z,1.80
2023-01-09T11:56:52.501Z,1.30
2023-01-09T11:59:30.304Z,1.50
2023-01-09T12:02:50.071Z,1.83
2023-01-09T12:05:51.282Z,1.43
2023-01-09T12:08:42.682Z,1.57
2023-01-09T12:11:34.276Z,1.37
2023-01-09T12:14:22.357Z,1.40
2023-01-09T12:17:10.348Z,1.50
2023-01-09T12:19:56.978Z,1.33
2023-01-09T12:22:42.256Z,1.50
2023-01-09T12:25:25.356Z,1.60
2023-01-09T12:28:13.333Z,1.30
2023-01-09T12:30:53.556Z,1.40
2023-01-09T12:33:40.411Z,1.67
2023-01-09T12:36:16.290Z,1.80
2023-01-09T12:38:56.426Z,1.77
2023-01-09T12:41:48.381Z,1.87
2023-01-09T12:44:58.478Z,1.50
2023-01-09T12:47:48.094Z,2.00
2023-01-09T12:50:48.456Z,2.30
2023-01-09T12:53:22.768Z,1.80
2023-01-09T12:56:03.303Z,1.87
2023-01-09T12:58:43.223Z,2.20
2023-01-09T13:01:24.489Z,2.27
2023-01-09T13:04:10.461Z,2.17
2023-01-09T13:06:49.239Z,1.67
2023-01-09T13:09:26.811Z,2.10
2023-01-09T13:12:10.373Z,1.90
2023-01-09T13:14:51.648Z,2.50
2023-01-09T13:17:31.283Z,2.13
2023-01-09T13:19:59.727Z,1.93
2023-01-09T13:22:37.338Z,2.20
2023-01-09T13:25:39.182Z,2.03
2023-01-09T13:28:21.336Z,1.93
2023-01-09T13:31:20.251Z,2.57
2023-01-09T13:34:01.504Z,1.77
2023-01-09T13:36:33.871Z,2.00
2023-01-09T13:39:10.413Z,2.30
2023-01-09T13:42:06.634Z,2.90
2023-01-09T13:44:41.636Z,2.10
2023-01-09T13:47:20.056Z,2.83
2023-01-09T13:50:32.437Z,2.50
2023-01-09T13:53:46.415Z,2.33
2023-01-09T13:56:16.292Z,2.87
2023-01-09T13:59:11.546Z,2.60
2023-01-09T14:01:44.942Z,2.60
2023-01-09T14:04:55.385Z,2.60
2023-01-09T14:07:25.885Z,2.00
2023-01-09T14:10:05.493Z,2.50
2023-01-09T14:12:42.007Z,2.20
2023-01-09T14:15:33.574Z,2.73
2023-01-09T14:18:03.841Z,2.20
2023-01-09T14:20:45.555Z,2.00
2023-01-09T14:23:42.226Z,2.47
2023-01-09T14:26:25.628Z,2.33
2023-01-09T14:29:17.654Z,2.70
2023-01-09T14:31:53.643Z,2.57
2023-01-09T14:34:36.814Z,2.17
2023-01-09T14:37:13.603Z,2.67
2023-01-09T14:39:47.085Z,2.30
2023-01-09T14:42:29.603Z,2.70
2023-01-09T14:45:02.485Z,2.83
2023-01-09T14:47:45.466Z,2.50
2023-01-09T14:50:20.080Z,2.30
2023-01-09T14:53:00.506Z,2.70
2023-01-09T14:55:35.796Z,2.90
2023-01-09T14:58:27.647Z,2.53
2023-01-09T15:01:03.900Z,2.90
2023-01-09T15:03:45.414Z,2.67
2023-01-09T15:06:29.458Z,2.73
2023-01-09T15:09:04.637Z,2.70
2023-01-09T15:11:41.441Z,2.50
2023-01-09T15:14:20.058Z,2.43
2023-01-09T15:16:55.431Z,2.37
2023-01-09T15:19:25.289Z,2.70
2023-01-09T15:22:08.420Z,2.40
2023-01-09T15:24:38.429Z,2.40
2023-01-09T15:27:21.444Z,2.67
2023-01-09T15:29:56.620Z,2.47
2023-01-09T15:32:27.877Z,2.87
2023-01-09T15:35:04.483Z,2.73
2023-01-09T15:37:38.936Z,2.60
2023-01-09T15:40:31.611Z,2.70
2023-01-09T15:43:01.284Z,2.83
2023-01-09T15:45:40.595Z,2.53
2023-01-09T15:48:24.483Z,2.47
2023-01-09T15:51:03.523Z,3.00
2023-01-09T15:53:33.594Z,2.40
2023-01-09T15:56:21.680Z,3.27
2023-01-09T15:58:51.376Z,2.97
2023-01-09T16:01:48.788Z,2.27
2023-01-09T16:04:25.860Z,2.30
2023-01-09T16:07:06.539Z,2.23
2023-01-09T16:09:37.993Z,2.80
2023-01-09T16:12:23.454Z,2.50
2023-01-09T16:14:55.631Z,2.33
2023-01-09T16:17:33.599Z,2.10
2023-01-09T16:20:16.071Z,2.60
2023-01-09T16:23:01.985Z,2.40
2023-01-09T16:25:34.251Z,2.30
2023-01-09T16:28:27.670Z,2.37
2023-01-09T16:30:59.503Z,3.13
2023-01-09T16:33:36.711Z,2.40
2023-01-09T16:36:07.460Z,2.80
2023-01-09T16:38:42.662Z,2.90
2023-01-09T16:41:30.591Z,2.80
2023-01-09T16:44:06.653Z,2.50
2023-01-09T16:46:38.211Z,2.43
2023-01-09T16:49:21.549Z,2.77
2023-01-09T16:51:50.400Z,3.33
2023-01-09T16:54:25.548Z,3.10
2023-01-09T16:56:55.800Z,3.27
2023-01-09T16:59:34.571Z,2.90
2023-01-09T17:02:02.876Z,2.80
2023-01-09T17:04:44.579Z,2.50
2023-01-09T17:07:14.580Z,2.83
2023-01-09T17:09:49.617Z,3.70
2023-01-09T17:12:20.314Z,2.60
2023-01-09T17:14:57.561Z,3.00
2023-01-09T17:17:26.402Z,2.83
2023-01-09T17:20:01.851Z,2.87
2023-01-09T17:22:30.277Z,2.77
2023-01-09T17:25:22.751Z,3.47
2023-01-09T17:28:09.290Z,2.77
2023-01-09T17:30:45.669Z,2.90
2023-01-09T17:33:17.020Z,3.03
2023-01-09T17:35:52.779Z,2.47
2023-01-09T17:38:21.337Z,2.43
2023-01-09T17:40:56.701Z,2.50
2023-01-09T17:43:25.625Z,2.60
2023-01-09T17:46:01.637Z,2.43
2023-01-09T17:48:30.155Z,2.30
2023-01-09T17:51:05.597Z,2.43
2023-01-09T17:53:34.437Z,2.50
2023-01-09T17:56:11.617Z,2.67
2023-01-09T17:58:40.238Z,2.57
2023-01-09T18:01:18.848Z,2.70
2023-01-09T18:03:53.722Z,2.50
2023-01-09T18:06:31.821Z,2.27
2023-01-09T18:09:00.317Z,2.40
2023-01-09T18:11:35.725Z,2.20
2023-01-09T18:14:04.195Z,1.90
2023-01-09T18:16:42.683Z,1.70
2023-01-09T18:19:11.703Z,1.80
2023-01-09T18:21:46.679Z,2.20
2023-01-09T18:24:15.198Z,1.73
2023-01-09T18:26:49.664Z,1.87
2023-01-09T18:29:19.365Z,1.70
2023-01-09T18:31:55.790Z,1.53
2023-01-09T18:34:24.407Z,1.60
2023-01-09T18:36:59.702Z,1.60
2023-01-09T18:39:28.271Z,1.90
2023-01-09T18:42:02.680Z,2.03
2023-01-09T18:44:31.017Z,1.80
2023-01-09T18:47:07.664Z,3.00
2023-01-09T18:49:36.192Z,2.87
2023-01-09T18:52:10.672Z,2.90
2023-01-09T18:54:38.904Z,3.50
2023-01-09T18:57:13.817Z,3.63
2023-01-09T18:59:42.080Z,3.90
2023-01-09T19:02:26.810Z,3.53
2023-01-09T19:05:08.666Z,3.90
2023-01-09T19:07:37.561Z,3.30
2023-01-09T19:10:13.806Z,3.80
2023-01-09T19:12:42.650Z,3.23
2023-01-09T19:15:19.776Z,3.20
2023-01-09T19:17:50.422Z,3.17
2023-01-09T19:20:25.639Z,3.63
2023-01-09T19:22:53.889Z,3.23
2023-01-09T19:25:28.814Z,3.77
2023-01-09T19:28:00.191Z,3.60
2023-01-09T19:30:35.703Z,3.40
2023-01-09T19:33:06.148Z,3.73
2023-01-09T19:35:40.776Z,4.13
2023-01-09T19:38:09.155Z,3.73
2023-01-09T19:40:43.733Z,3.90
2023-01-09T19:43:25.716Z,5.10
2023-01-09T19:46:01.844Z,4.47
2023-01-09T19:48:31.789Z,4.30
2023-01-09T19:51:09.707Z,4.27
2023-01-09T19:53:38.715Z,5.97
2023-01-09T19:56:17.661Z,12.87
2023-01-09T19:58:52.206Z,4.13
2023-01-09T20:01:30.976Z,4.90
2023-01-09T20:04:22.658Z,3.60
2023-01-09T20:06:59.710Z,3.40
2023-01-09T20:09:29.029Z,3.27
2023-01-09T20:12:03.912Z,2.93
2023-01-09T20:14:32.422Z,2.43
2023-01-09T20:17:10.751Z,2.57
2023-01-09T20:19:40.465Z,2.30
2023-01-09T20:22:16.033Z,2.77
2023-01-09T20:24:44.262Z,2.80
2023-01-09T20:27:19.927Z,2.43
2023-01-09T20:29:49.521Z,2.70
2023-01-09T20:32:25.704Z,2.40
2023-01-09T20:34:55.531Z,2.30
2023-01-09T20:37:30.741Z,2.60
2023-01-09T20:39:59.012Z,2.20
2023-01-09T20:42:33.744Z,2.10
2023-01-09T20:45:02.501Z,2.77
2023-01-09T20:47:38.283Z,2.40
2023-01-09T20:50:10.510Z,2.53
2023-01-09T20:52:45.694Z,2.57
2023-01-09T20:55:14.931Z,2.20
2023-01-09T20:57:49.828Z,2.50
2023-01-09T21:00:19.189Z,2.30
2023-01-09T21:02:53.919Z,2.40
2023-01-09T21:05:30.633Z,2.20
2023-01-09T21:08:05.932Z,2.03
2023-01-09T21:10:34.384Z,2.20
2023-01-09T21:13:09.929Z,2.53
2023-01-09T21:15:40.048Z,2.53
2023-01-09T21:18:14.881Z,2.30
2023-01-09T21:20:44.798Z,2.10
2023-01-09T21:23:20.125Z,2.17
2023-01-09T21:25:48.963Z,2.20
2023-01-09T21:28:25.845Z,2.20
2023-01-09T21:30:54.620Z,2.27
2023-01-09T21:33:29.964Z,1.90
2023-01-09T21:36:01.025Z,2.30
2023-01-09T21:38:35.930Z,2.27
2023-01-09T21:41:18.532Z,2.13
2023-01-09T21:44:10.838Z,2.40
2023-01-09T21:47:02.962Z,2.10
2023-01-09T21:49:35.254Z,2.57
2023-01-09T21:52:11.766Z,2.40
2023-01-09T21:54:40.834Z,2.33
2023-01-09T21:57:15.793Z,2.97
2023-01-09T21:59:44.804Z,3.00
2023-01-09T22:02:20.888Z,3.70
2023-01-09T22:05:00.309Z,2.93
2023-01-09T22:07:42.791Z,2.90
2023-01-09T22:10:12.170Z,2.80
2023-01-09T22:13:06.871Z,2.93
2023-01-09T22:15:35.433Z,3.33
2023-01-09T22:18:10.843Z,4.00
2023-01-09T22:20:39.414Z,3.97
2023-01-09T22:23:15.821Z,3.83
2023-01-09T22:25:44.091Z,3.67
2023-01-09T22:28:19.837Z,3.53
2023-01-09T22:30:48.275Z,3.47
2023-01-09T22:33:25.246Z,3.27
2023-01-09T22:35:54.109Z,4.23
2023-01-09T22:38:30.857Z,4.33
2023-01-09T22:40:59.186Z,3.53
2023-01-09T22:43:34.995Z,3.00
2023-01-09T22:46:04.914Z,3.50
2023-01-09T22:48:40.934Z,4.00
2023-01-09T22:51:13.867Z,2.90
2023-01-09T22:53:50.883Z,4.00
2023-01-09T22:56:21.770Z,3.80
2023-01-09T22:58:58.858Z,3.20
2023-01-09T23:01:27.182Z,3.60
2023-01-09T23:04:01.817Z,3.43
2023-01-09T23:06:30.215Z,3.23
2023-01-09T23:09:06.832Z,3.13
2023-01-09T23:11:52.475Z,3.40
2023-01-09T23:14:28.843Z,3.90
2023-01-09T23:16:57.957Z,3.83
2023-01-09T23:19:32.872Z,3.00
2023-01-09T23:22:02.179Z,3.33
2023-01-09T23:24:40.048Z,3.53
2023-01-09T23:27:08.712Z,3.03
2023-01-09T23:29:44.949Z,3.17
2023-01-09T23:32:14.303Z,3.27
2023-01-09T23:34:49.962Z,4.03
2023-01-09T23:37:18.403Z,3.60
2023-01-09T23:39:54.866Z,3.70
2023-01-09T23:42:40.748Z,3.70
2023-01-09T23:45:15.921Z,3.23
2023-01-09T23:47:44.352Z,4.00
2023-01-09T23:50:19.972Z,3.60
2023-01-09T23:52:48.518Z,3.93
2023-01-09T23:55:24.874Z,2.73
2023-01-09T23:57:55.162Z,3.53
